sensor_id;sensor_type;location;lat;lon;timestamp;temperature;humidity
10384;DHT22;5238;43.508;4.980;2023-09-19T00:00:56;22.90;91.30
10384;DHT22;5238;43.508;4.980;2023-09-19T00:03:23;22.90;91.30
10384;DHT22;5238;43.508;4.980;2023-09-19T00:05:52;22.80;91.30
10384;DHT22;5238;43.508;4.980;2023-09-19T00:08:21;22.80;91.30
10384;DHT22;5238;43.508;4.980;2023-09-19T00:10:50;22.70;91.30
10384;DHT22;5238;43.508;4.980;2023-09-19T00:13:19;22.70;91.30
10384;DHT22;5238;43.508;4.980;2023-09-19T00:15:47;22.70;91.30
10384;DHT22;5238;43.508;4.980;2023-09-19T00:18:15;22.70;91.30
10384;DHT22;5238;43.508;4.980;2023-09-19T00:20:44;22.70;91.30
10384;DHT22;5238;43.508;4.980;2023-09-19T00:23:14;22.60;91.30
10384;DHT22;5238;43.508;4.980;2023-09-19T00:25:42;22.60;91.30
10384;DHT22;5238;43.508;4.980;2023-09-19T00:28:09;22.60;91.30
10384;DHT22;5238;43.508;4.980;2023-09-19T00:30:36;22.60;91.30
10384;DHT22;5238;43.508;4.980;2023-09-19T00:33:04;22.50;91.30
10384;DHT22;5238;43.508;4.980;2023-09-19T00:35:33;22.50;91.30
10384;DHT22;5238;43.508;4.980;2023-09-19T00:38:00;22.50;91.30
10384;DHT22;5238;43.508;4.980;2023-09-19T00:40:29;22.40;91.30
10384;DHT22;5238;43.508;4.980;2023-09-19T00:42:58;22.40;91.30
10384;DHT22;5238;43.508;4.980;2023-09-19T00:45:27;22.40;91.30
10384;DHT22;5238;43.508;4.980;2023-09-19T00:47:54;22.40;91.30
10384;DHT22;5238;43.508;4.980;2023-09-19T00:50:24;22.40;91.30
10384;DHT22;5238;43.508;4.980;2023-09-19T00:52:54;22.40;91.30
10384;DHT22;5238;43.508;4.980;2023-09-19T00:55:24;22.30;91.30
10384;DHT22;5238;43.508;4.980;2023-09-19T00:57:52;22.40;91.30
10384;DHT22;5238;43.508;4.980;2023-09-19T01:00:22;22.40;91.30
10384;DHT22;5238;43.508;4.980;2023-09-19T01:02:49;22.40;91.30
10384;DHT22;5238;43.508;4.980;2023-09-19T01:05:16;22.30;91.30
10384;DHT22;5238;43.508;4.980;2023-09-19T01:07:44;22.30;91.30
10384;DHT22;5238;43.508;4.980;2023-09-19T01:10:13;22.30;91.30
10384;DHT22;5238;43.508;4.980;2023-09-19T01:12:48;22.30;91.30
10384;DHT22;5238;43.508;4.980;2023-09-19T01:15:24;22.30;91.30
10384;DHT22;5238;43.508;4.980;2023-09-19T01:18:00;22.30;91.30
10384;DHT22;5238;43.508;4.980;2023-09-19T01:20:37;22.30;91.30
10384;DHT22;5238;43.508;4.980;2023-09-19T01:23:13;22.30;91.30
10384;DHT22;5238;43.508;4.980;2023-09-19T01:26:05;22.20;91.30
10384;DHT22;5238;43.508;4.980;2023-09-19T01:28:43;22.20;91.30
10384;DHT22;5238;43.508;4.980;2023-09-19T01:31:15;22.20;91.30
10384;DHT22;5238;43.508;4.980;2023-09-19T01:33:57;22.20;91.30
10384;DHT22;5238;43.508;4.980;2023-09-19T01:36:25;22.20;91.30
10384;DHT22;5238;43.508;4.980;2023-09-19T01:38:54;22.10;91.30
10384;DHT22;5238;43.508;4.980;2023-09-19T01:41:26;22.10;91.30
10384;DHT22;5238;43.508;4.980;2023-09-19T01:44:00;22.10;91.30
10384;DHT22;5238;43.508;4.980;2023-09-19T01:46:33;22.00;91.30
10384;DHT22;5238;43.508;4.980;2023-09-19T01:49:22;22.00;91.30
10384;DHT22;5238;43.508;4.980;2023-09-19T01:52:00;22.00;91.30
10384;DHT22;5238;43.508;4.980;2023-09-19T01:54:33;22.00;91.30
10384;DHT22;5238;43.508;4.980;2023-09-19T01:57:09;21.90;91.30
10384;DHT22;5238;43.508;4.980;2023-09-19T01:59:43;21.90;91.30
10384;DHT22;5238;43.508;4.980;2023-09-19T02:02:14;21.90;91.30
10384;DHT22;5238;43.508;4.980;2023-09-19T02:04:41;21.90;91.30
10384;DHT22;5238;43.508;4.980;2023-09-19T02:07:08;21.90;91.30
10384;DHT22;5238;43.508;4.980;2023-09-19T02:09:35;21.90;91.30
10384;DHT22;5238;43.508;4.980;2023-09-19T02:12:05;21.80;91.30
10384;DHT22;5238;43.508;4.980;2023-09-19T02:14:32;21.80;91.30
10384;DHT22;5238;43.508;4.980;2023-09-19T02:17:01;21.80;91.30
10384;DHT22;5238;43.508;4.980;2023-09-19T02:19:30;21.80;91.30
10384;DHT22;5238;43.508;4.980;2023-09-19T02:21:59;21.70;91.30
10384;DHT22;5238;43.508;4.980;2023-09-19T02:24:28;21.60;91.30
10384;DHT22;5238;43.508;4.980;2023-09-19T02:26:56;21.60;91.30
10384;DHT22;5238;43.508;4.980;2023-09-19T02:29:25;21.60;91.30
10384;DHT22;5238;43.508;4.980;2023-09-19T02:31:52;21.60;91.30
10384;DHT22;5238;43.508;4.980;2023-09-19T02:34:21;21.50;91.30
10384;DHT22;5238;43.508;4.980;2023-09-19T02:36:50;21.50;91.30
10384;DHT22;5238;43.508;4.980;2023-09-19T02:39:19;21.50;91.30
10384;DHT22;5238;43.508;4.980;2023-09-19T02:41:46;21.50;91.30
10384;DHT22;5238;43.508;4.980;2023-09-19T02:44:13;21.40;91.30
10384;DHT22;5238;43.508;4.980;2023-09-19T02:46:40;21.40;91.30
10384;DHT22;5238;43.508;4.980;2023-09-19T02:49:07;21.40;91.30
10384;DHT22;5238;43.508;4.980;2023-09-19T02:51:34;21.40;91.30
10384;DHT22;5238;43.508;4.980;2023-09-19T02:54:03;21.40;91.30
10384;DHT22;5238;43.508;4.980;2023-09-19T02:56:30;21.30;91.30
10384;DHT22;5238;43.508;4.980;2023-09-19T02:58:58;21.30;91.30
10384;DHT22;5238;43.508;4.980;2023-09-19T03:01:26;21.30;91.30
10384;DHT22;5238;43.508;4.980;2023-09-19T03:03:53;21.20;91.30
10384;DHT22;5238;43.508;4.980;2023-09-19T03:06:21;21.20;91.30
10384;DHT22;5238;43.508;4.980;2023-09-19T03:08:49;21.10;91.30
10384;DHT22;5238;43.508;4.980;2023-09-19T03:11:18;21.10;91.30
10384;DHT22;5238;43.508;4.980;2023-09-19T03:13:51;21.10;91.30
10384;DHT22;5238;43.508;4.980;2023-09-19T03:16:18;21.10;91.30
10384;DHT22;5238;43.508;4.980;2023-09-19T03:18:47;21.00;91.30
10384;DHT22;5238;43.508;4.980;2023-09-19T03:21:14;21.00;91.30
10384;DHT22;5238;43.508;4.980;2023-09-19T03:23:42;21.00;91.30
10384;DHT22;5238;43.508;4.980;2023-09-19T03:26:11;21.00;91.30
10384;DHT22;5238;43.508;4.980;2023-09-19T03:28:41;20.90;91.30
10384;DHT22;5238;43.508;4.980;2023-09-19T03:31:09;20.90;91.30
10384;DHT22;5238;43.508;4.980;2023-09-19T03:33:36;20.90;91.30
10384;DHT22;5238;43.508;4.980;2023-09-19T03:36:04;20.90;91.30
10384;DHT22;5238;43.508;4.980;2023-09-19T03:38:31;20.90;91.30
10384;DHT22;5238;43.508;4.980;2023-09-19T03:40:59;20.80;91.30
10384;DHT22;5238;43.508;4.980;2023-09-19T03:43:26;20.80;91.30
10384;DHT22;5238;43.508;4.980;2023-09-19T03:45:55;20.80;91.30
10384;DHT22;5238;43.508;4.980;2023-09-19T03:48:21;20.80;91.30
10384;DHT22;5238;43.508;4.980;2023-09-19T03:50:48;20.80;91.30
10384;DHT22;5238;43.508;4.980;2023-09-19T03:53:16;20.80;91.30
10384;DHT22;5238;43.508;4.980;2023-09-19T03:55:45;20.80;91.30
10384;DHT22;5238;43.508;4.980;2023-09-19T03:58:12;20.80;91.30
10384;DHT22;5238;43.508;4.980;2023-09-19T04:00:39;20.80;91.30
10384;DHT22;5238;43.508;4.980;2023-09-19T04:03:07;20.80;91.30
10384;DHT22;5238;43.508;4.980;2023-09-19T04:05:36;20.80;91.30
10384;DHT22;5238;43.508;4.980;2023-09-19T04:08:04;20.70;91.30
10384;DHT22;5238;43.508;4.980;2023-09-19T04:10:31;20.70;91.30
10384;DHT22;5238;43.508;4.980;2023-09-19T04:12:58;20.70;91.30
10384;DHT22;5238;43.508;4.980;2023-09-19T04:15:25;20.70;91.30
10384;DHT22;5238;43.508;4.980;2023-09-19T04:17:53;20.70;91.30
10384;DHT22;5238;43.508;4.980;2023-09-19T04:20:21;20.60;91.30
10384;DHT22;5238;43.508;4.980;2023-09-19T04:22:49;20.60;91.30
10384;DHT22;5238;43.508;4.980;2023-09-19T04:25:16;20.60;91.30
10384;DHT22;5238;43.508;4.980;2023-09-19T04:27:44;20.60;91.30
10384;DHT22;5238;43.508;4.980;2023-09-19T04:30:12;20.60;91.30
10384;DHT22;5238;43.508;4.980;2023-09-19T04:32:40;20.60;91.30
10384;DHT22;5238;43.508;4.980;2023-09-19T04:35:08;20.60;91.30
10384;DHT22;5238;43.508;4.980;2023-09-19T04:37:38;20.60;91.30
10384;DHT22;5238;43.508;4.980;2023-09-19T04:40:08;20.60;91.30
10384;DHT22;5238;43.508;4.980;2023-09-19T04:42:39;20.60;91.30
10384;DHT22;5238;43.508;4.980;2023-09-19T04:45:07;20.50;91.30
10384;DHT22;5238;43.508;4.980;2023-09-19T04:47:36;20.50;91.30
10384;DHT22;5238;43.508;4.980;2023-09-19T04:50:06;20.50;91.30
10384;DHT22;5238;43.508;4.980;2023-09-19T04:52:39;20.40;91.30
10384;DHT22;5238;43.508;4.980;2023-09-19T04:55:08;20.40;91.30
10384;DHT22;5238;43.508;4.980;2023-09-19T04:57:36;20.40;91.30
10384;DHT22;5238;43.508;4.980;2023-09-19T05:00:05;20.40;91.30
10384;DHT22;5238;43.508;4.980;2023-09-19T05:02:38;20.40;91.30
10384;DHT22;5238;43.508;4.980;2023-09-19T05:05:06;20.40;91.30
10384;DHT22;5238;43.508;4.980;2023-09-19T05:07:33;20.40;91.30
10384;DHT22;5238;43.508;4.980;2023-09-19T05:10:02;20.30;91.30
10384;DHT22;5238;43.508;4.980;2023-09-19T05:12:31;20.30;91.30
10384;DHT22;5238;43.508;4.980;2023-09-19T05:14:59;20.30;91.30
10384;DHT22;5238;43.508;4.980;2023-09-19T05:17:27;20.30;91.30
10384;DHT22;5238;43.508;4.980;2023-09-19T05:19:54;20.20;91.30
10384;DHT22;5238;43.508;4.980;2023-09-19T05:22:20;20.20;91.30
10384;DHT22;5238;43.508;4.980;2023-09-19T05:24:50;20.20;91.30
10384;DHT22;5238;43.508;4.980;2023-09-19T05:27:19;20.20;91.30
10384;DHT22;5238;43.508;4.980;2023-09-19T05:29:47;20.20;91.30
10384;DHT22;5238;43.508;4.980;2023-09-19T05:32:14;20.10;91.30
10384;DHT22;5238;43.508;4.980;2023-09-19T05:34:41;20.10;91.30
10384;DHT22;5238;43.508;4.980;2023-09-19T05:37:08;20.10;91.30
10384;DHT22;5238;43.508;4.980;2023-09-19T05:39:35;20.10;91.30
10384;DHT22;5238;43.508;4.980;2023-09-19T05:42:03;20.10;91.30
10384;DHT22;5238;43.508;4.980;2023-09-19T05:44:31;20.10;91.30
10384;DHT22;5238;43.508;4.980;2023-09-19T05:46:58;20.00;91.30
10384;DHT22;5238;43.508;4.980;2023-09-19T05:49:25;20.00;91.30
10384;DHT22;5238;43.508;4.980;2023-09-19T05:51:53;20.00;91.30
10384;DHT22;5238;43.508;4.980;2023-09-19T05:54:24;20.00;91.30
10384;DHT22;5238;43.508;4.980;2023-09-19T05:56:51;20.00;91.30
10384;DHT22;5238;43.508;4.980;2023-09-19T05:59:19;20.10;91.30
10384;DHT22;5238;43.508;4.980;2023-09-19T06:01:47;20.10;91.30
10384;DHT22;5238;43.508;4.980;2023-09-19T06:04:14;20.10;91.30
10384;DHT22;5238;43.508;4.980;2023-09-19T06:06:41;20.10;91.30
10384;DHT22;5238;43.508;4.980;2023-09-19T06:09:08;20.20;91.30
10384;DHT22;5238;43.508;4.980;2023-09-19T06:11:35;20.20;91.30
10384;DHT22;5238;43.508;4.980;2023-09-19T06:14:03;20.30;91.30
10384;DHT22;5238;43.508;4.980;2023-09-19T06:16:30;20.40;91.30
10384;DHT22;5238;43.508;4.980;2023-09-19T06:19:00;20.60;91.30
10384;DHT22;5238;43.508;4.980;2023-09-19T06:21:27;20.80;91.30
10384;DHT22;5238;43.508;4.980;2023-09-19T06:23:54;21.00;91.30
10384;DHT22;5238;43.508;4.980;2023-09-19T06:26:21;21.20;91.30
10384;DHT22;5238;43.508;4.980;2023-09-19T06:28:49;21.40;91.30
10384;DHT22;5238;43.508;4.980;2023-09-19T06:31:16;21.70;91.30
10384;DHT22;5238;43.508;4.980;2023-09-19T06:33:43;21.90;91.30
10384;DHT22;5238;43.508;4.980;2023-09-19T06:36:12;22.20;91.30
10384;DHT22;5238;43.508;4.980;2023-09-19T06:38:39;22.50;91.30
10384;DHT22;5238;43.508;4.980;2023-09-19T06:41:07;22.70;91.30
10384;DHT22;5238;43.508;4.980;2023-09-19T06:43:34;23.10;91.30
10384;DHT22;5238;43.508;4.980;2023-09-19T06:46:01;23.40;91.30
10384;DHT22;5238;43.508;4.980;2023-09-19T06:48:29;23.70;91.30
10384;DHT22;5238;43.508;4.980;2023-09-19T06:50:57;24.00;91.30
10384;DHT22;5238;43.508;4.980;2023-09-19T06:53:31;24.20;91.30
10384;DHT22;5238;43.508;4.980;2023-09-19T06:56:01;24.50;91.30
10384;DHT22;5238;43.508;4.980;2023-09-19T06:58:28;24.70;91.30
10384;DHT22;5238;43.508;4.980;2023-09-19T07:00:55;25.00;91.30
10384;DHT22;5238;43.508;4.980;2023-09-19T07:03:22;25.20;91.30
10384;DHT22;5238;43.508;4.980;2023-09-19T07:05:52;25.50;91.30
10384;DHT22;5238;43.508;4.980;2023-09-19T07:08:21;25.70;91.30
10384;DHT22;5238;43.508;4.980;2023-09-19T07:10:50;26.00;91.30
10384;DHT22;5238;43.508;4.980;2023-09-19T07:13:18;26.20;91.30
10384;DHT22;5238;43.508;4.980;2023-09-19T07:15:45;26.50;91.30
10384;DHT22;5238;43.508;4.980;2023-09-19T07:18:16;26.70;91.30
10384;DHT22;5238;43.508;4.980;2023-09-19T07:20:44;27.00;91.30
10384;DHT22;5238;43.508;4.980;2023-09-19T07:23:15;27.20;91.30
10384;DHT22;5238;43.508;4.980;2023-09-19T07:25:42;27.50;91.30
10384;DHT22;5238;43.508;4.980;2023-09-19T07:28:10;27.70;91.30
10384;DHT22;5238;43.508;4.980;2023-09-19T07:30:37;27.90;91.30
10384;DHT22;5238;43.508;4.980;2023-09-19T07:33:05;28.00;91.30
10384;DHT22;5238;43.508;4.980;2023-09-19T07:35:32;28.30;91.30
10384;DHT22;5238;43.508;4.980;2023-09-19T07:37:59;28.50;91.30
10384;DHT22;5238;43.508;4.980;2023-09-19T07:40:28;28.70;91.30
10384;DHT22;5238;43.508;4.980;2023-09-19T07:42:56;29.00;91.30
10384;DHT22;5238;43.508;4.980;2023-09-19T07:45:28;29.20;91.30
10384;DHT22;5238;43.508;4.980;2023-09-19T07:47:56;29.40;91.30
10384;DHT22;5238;43.508;4.980;2023-09-19T07:50:23;29.70;91.30
10384;DHT22;5238;43.508;4.980;2023-09-19T07:52:52;29.90;91.30
10384;DHT22;5238;43.508;4.980;2023-09-19T07:55:20;30.10;91.30
10384;DHT22;5238;43.508;4.980;2023-09-19T07:57:49;30.40;91.30
10384;DHT22;5238;43.508;4.980;2023-09-19T08:00:16;30.60;91.30
10384;DHT22;5238;43.508;4.980;2023-09-19T08:02:45;30.80;91.30
10384;DHT22;5238;43.508;4.980;2023-09-19T08:05:13;31.00;91.30
10384;DHT22;5238;43.508;4.980;2023-09-19T08:07:43;31.20;91.30
10384;DHT22;5238;43.508;4.980;2023-09-19T08:10:14;31.40;91.30
10384;DHT22;5238;43.508;4.980;2023-09-19T08:12:42;31.60;91.30
10384;DHT22;5238;43.508;4.980;2023-09-19T08:15:12;31.90;91.30
10384;DHT22;5238;43.508;4.980;2023-09-19T08:17:40;32.00;91.30
10384;DHT22;5238;43.508;4.980;2023-09-19T08:20:09;32.10;91.30
10384;DHT22;5238;43.508;4.980;2023-09-19T08:22:46;32.20;91.30
10384;DHT22;5238;43.508;4.980;2023-09-19T08:25:14;32.30;91.30
10384;DHT22;5238;43.508;4.980;2023-09-19T08:27:43;32.40;91.30
10384;DHT22;5238;43.508;4.980;2023-09-19T08:30:13;32.40;91.30
10384;DHT22;5238;43.508;4.980;2023-09-19T08:32:40;32.60;91.30
10384;DHT22;5238;43.508;4.980;2023-09-19T08:35:10;32.70;91.30
10384;DHT22;5238;43.508;4.980;2023-09-19T08:37:37;32.70;91.30
10384;DHT22;5238;43.508;4.980;2023-09-19T08:40:05;32.80;91.30
10384;DHT22;5238;43.508;4.980;2023-09-19T08:42:49;33.00;91.30
10384;DHT22;5238;43.508;4.980;2023-09-19T08:45:16;33.10;91.30
10384;DHT22;5238;43.508;4.980;2023-09-19T08:47:47;33.20;91.30
10384;DHT22;5238;43.508;4.980;2023-09-19T08:50:22;33.30;91.30
10384;DHT22;5238;43.508;4.980;2023-09-19T08:52:55;33.30;91.30
10384;DHT22;5238;43.508;4.980;2023-09-19T08:55:26;33.40;91.30
10384;DHT22;5238;43.508;4.980;2023-09-19T08:57:59;33.40;91.30
10384;DHT22;5238;43.508;4.980;2023-09-19T09:00:28;33.50;91.30
10384;DHT22;5238;43.508;4.980;2023-09-19T09:02:56;33.70;91.30
10384;DHT22;5238;43.508;4.980;2023-09-19T09:05:25;33.80;91.30
10384;DHT22;5238;43.508;4.980;2023-09-19T09:07:54;33.90;91.30
10384;DHT22;5238;43.508;4.980;2023-09-19T09:10:22;33.90;91.30
10384;DHT22;5238;43.508;4.980;2023-09-19T09:12:51;33.80;91.30
10384;DHT22;5238;43.508;4.980;2023-09-19T09:15:19;33.80;91.30
10384;DHT22;5238;43.508;4.980;2023-09-19T09:17:47;33.80;91.30
10384;DHT22;5238;43.508;4.980;2023-09-19T09:20:16;33.80;91.30
10384;DHT22;5238;43.508;4.980;2023-09-19T09:22:51;33.90;91.30
10384;DHT22;5238;43.508;4.980;2023-09-19T09:25:20;33.90;91.30
10384;DHT22;5238;43.508;4.980;2023-09-19T09:27:59;34.00;91.30
10384;DHT22;5238;43.508;4.980;2023-09-19T09:30:33;34.10;91.30
10384;DHT22;5238;43.508;4.980;2023-09-19T09:33:08;34.20;91.30
10384;DHT22;5238;43.508;4.980;2023-09-19T09:35:36;34.20;91.30
10384;DHT22;5238;43.508;4.980;2023-09-19T09:38:06;34.30;91.30
10384;DHT22;5238;43.508;4.980;2023-09-19T09:40:46;34.50;91.30
10384;DHT22;5238;43.508;4.980;2023-09-19T09:43:26;34.50;91.30
10384;DHT22;5238;43.508;4.980;2023-09-19T09:46:13;34.60;91.30
10384;DHT22;5238;43.508;4.980;2023-09-19T09:49:23;34.70;91.30
10384;DHT22;5238;43.508;4.980;2023-09-19T09:51:59;34.70;91.30
10384;DHT22;5238;43.508;4.980;2023-09-19T09:54:33;34.70;91.30
10384;DHT22;5238;43.508;4.980;2023-09-19T09:57:03;34.70;91.30
10384;DHT22;5238;43.508;4.980;2023-09-19T09:59:46;34.70;91.30
10384;DHT22;5238;43.508;4.980;2023-09-19T10:02:15;34.80;91.30
10384;DHT22;5238;43.508;4.980;2023-09-19T10:04:48;34.90;91.30
10384;DHT22;5238;43.508;4.980;2023-09-19T10:07:30;35.00;91.30
10384;DHT22;5238;43.508;4.980;2023-09-19T10:10:03;35.00;91.30
10384;DHT22;5238;43.508;4.980;2023-09-19T10:12:43;35.10;91.30
10384;DHT22;5238;43.508;4.980;2023-09-19T10:15:15;35.00;91.30
10384;DHT22;5238;43.508;4.980;2023-09-19T10:17:43;35.00;91.30
10384;DHT22;5238;43.508;4.980;2023-09-19T10:20:15;35.00;91.30
10384;DHT22;5238;43.508;4.980;2023-09-19T10:23:03;35.10;91.30
10384;DHT22;5238;43.508;4.980;2023-09-19T10:25:37;35.10;91.30
10384;DHT22;5238;43.508;4.980;2023-09-19T10:28:06;35.10;91.30
10384;DHT22;5238;43.508;4.980;2023-09-19T10:30:37;35.10;91.30
10384;DHT22;5238;43.508;4.980;2023-09-19T10:33:09;35.10;91.30
10384;DHT22;5238;43.508;4.980;2023-09-19T10:35:39;35.10;91.30
10384;DHT22;5238;43.508;4.980;2023-09-19T10:38:08;35.10;91.30
10384;DHT22;5238;43.508;4.980;2023-09-19T10:40:38;35.10;91.30
10384;DHT22;5238;43.508;4.980;2023-09-19T10:43:12;35.20;91.30
10384;DHT22;5238;43.508;4.980;2023-09-19T10:45:41;35.20;91.30
10384;DHT22;5238;43.508;4.980;2023-09-19T10:48:10;35.30;91.30
10384;DHT22;5238;43.508;4.980;2023-09-19T10:50:44;35.30;91.30
10384;DHT22;5238;43.508;4.980;2023-09-19T10:53:12;35.20;91.30
10384;DHT22;5238;43.508;4.980;2023-09-19T10:55:49;35.10;91.30
10384;DHT22;5238;43.508;4.980;2023-09-19T10:58:25;35.10;91.30
10384;DHT22;5238;43.508;4.980;2023-09-19T11:00:55;35.10;91.30
10384;DHT22;5238;43.508;4.980;2023-09-19T11:03:23;35.10;91.30
10384;DHT22;5238;43.508;4.980;2023-09-19T11:06:03;34.90;91.30
10384;DHT22;5238;43.508;4.980;2023-09-19T11:08:54;34.70;91.30
10384;DHT22;5238;43.508;4.980;2023-09-19T11:11:44;34.50;91.30
10384;DHT22;5238;43.508;4.980;2023-09-19T11:14:38;34.20;91.30
10384;DHT22;5238;43.508;4.980;2023-09-19T11:17:30;34.00;91.30
10384;DHT22;5238;43.508;4.980;2023-09-19T11:20:19;33.80;91.30
10384;DHT22;5238;43.508;4.980;2023-09-19T11:23:19;33.50;91.30
10384;DHT22;5238;43.508;4.980;2023-09-19T11:25:49;33.20;91.30
10384;DHT22;5238;43.508;4.980;2023-09-19T11:28:38;33.10;91.30
10384;DHT22;5238;43.508;4.980;2023-09-19T11:40:45;32.60;91.30
10384;DHT22;5238;43.508;4.980;2023-09-19T11:43:31;32.30;91.30
10384;DHT22;5238;43.508;4.980;2023-09-19T11:46:07;32.20;91.30
10384;DHT22;5238;43.508;4.980;2023-09-19T11:48:41;32.00;91.30
10384;DHT22;5238;43.508;4.980;2023-09-19T11:51:17;31.90;91.30
10384;DHT22;5238;43.508;4.980;2023-09-19T11:53:54;31.80;91.30
10384;DHT22;5238;43.508;4.980;2023-09-19T11:56:22;31.70;91.30
10384;DHT22;5238;43.508;4.980;2023-09-19T11:58:50;31.60;91.30
10384;DHT22;5238;43.508;4.980;2023-09-19T12:01:24;31.50;91.30
10384;DHT22;5238;43.508;4.980;2023-09-19T12:03:56;31.30;91.30
10384;DHT22;5238;43.508;4.980;2023-09-19T12:06:24;31.20;91.30
10384;DHT22;5238;43.508;4.980;2023-09-19T12:08:51;31.10;91.30
10384;DHT22;5238;43.508;4.980;2023-09-19T12:11:21;31.00;91.30
10384;DHT22;5238;43.508;4.980;2023-09-19T12:13:48;30.90;91.30
10384;DHT22;5238;43.508;4.980;2023-09-19T12:16:17;30.80;91.30
10384;DHT22;5238;43.508;4.980;2023-09-19T12:18:49;30.80;91.30
10384;DHT22;5238;43.508;4.980;2023-09-19T12:21:27;30.70;91.30
10384;DHT22;5238;43.508;4.980;2023-09-19T12:24:07;30.70;91.30
10384;DHT22;5238;43.508;4.980;2023-09-19T12:26:43;30.70;91.30
10384;DHT22;5238;43.508;4.980;2023-09-19T12:29:15;30.70;91.30
10384;DHT22;5238;43.508;4.980;2023-09-19T12:31:53;30.70;91.30
10384;DHT22;5238;43.508;4.980;2023-09-19T12:34:25;30.70;91.30
10384;DHT22;5238;43.508;4.980;2023-09-19T12:37:07;30.70;91.30
10384;DHT22;5238;43.508;4.980;2023-09-19T12:39:41;30.70;91.30
10384;DHT22;5238;43.508;4.980;2023-09-19T12:42:10;30.80;91.30
10384;DHT22;5238;43.508;4.980;2023-09-19T12:44:41;30.70;91.30
10384;DHT22;5238;43.508;4.980;2023-09-19T12:47:14;30.70;91.30
10384;DHT22;5238;43.508;4.980;2023-09-19T12:50:07;30.70;91.30
10384;DHT22;5238;43.508;4.980;2023-09-19T12:52:39;30.70;91.30
10384;DHT22;5238;43.508;4.980;2023-09-19T12:55:07;30.70;91.30
10384;DHT22;5238;43.508;4.980;2023-09-19T12:57:36;30.70;91.30
10384;DHT22;5238;43.508;4.980;2023-09-19T13:00:06;30.60;91.30
10384;DHT22;5238;43.508;4.980;2023-09-19T13:02:36;30.60;91.30
10384;DHT22;5238;43.508;4.980;2023-09-19T13:05:03;30.60;91.30
10384;DHT22;5238;43.508;4.980;2023-09-19T13:07:44;30.60;91.30
10384;DHT22;5238;43.508;4.980;2023-09-19T13:10:13;30.60;91.30
10384;DHT22;5238;43.508;4.980;2023-09-19T13:12:42;30.50;91.30
10384;DHT22;5238;43.508;4.980;2023-09-19T13:15:14;30.50;91.30
10384;DHT22;5238;43.508;4.980;2023-09-19T13:17:45;30.50;91.30
10384;DHT22;5238;43.508;4.980;2023-09-19T13:20:23;30.50;91.30
10384;DHT22;5238;43.508;4.980;2023-09-19T13:22:56;30.50;91.30
10384;DHT22;5238;43.508;4.980;2023-09-19T13:25:32;30.50;91.30
10384;DHT22;5238;43.508;4.980;2023-09-19T13:27:59;30.40;91.30
10384;DHT22;5238;43.508;4.980;2023-09-19T13:30:30;30.40;91.30
10384;DHT22;5238;43.508;4.980;2023-09-19T13:33:06;30.40;91.30
10384;DHT22;5238;43.508;4.980;2023-09-19T13:35:33;30.40;91.30
10384;DHT22;5238;43.508;4.980;2023-09-19T13:38:02;30.40;91.30
10384;DHT22;5238;43.508;4.980;2023-09-19T13:40:29;30.40;91.30
10384;DHT22;5238;43.508;4.980;2023-09-19T13:43:00;30.40;91.30
10384;DHT22;5238;43.508;4.980;2023-09-19T13:45:27;30.40;91.30
10384;DHT22;5238;43.508;4.980;2023-09-19T13:47:56;30.40;91.30
10384;DHT22;5238;43.508;4.980;2023-09-19T13:50:23;30.40;91.30
10384;DHT22;5238;43.508;4.980;2023-09-19T13:52:51;30.40;91.30
10384;DHT22;5238;43.508;4.980;2023-09-19T13:55:20;30.50;91.30
10384;DHT22;5238;43.508;4.980;2023-09-19T13:57:47;30.50;91.30
10384;DHT22;5238;43.508;4.980;2023-09-19T14:00:15;30.50;91.30
10384;DHT22;5238;43.508;4.980;2023-09-19T14:02:43;30.50;91.30
10384;DHT22;5238;43.508;4.980;2023-09-19T14:05:11;30.50;91.30
10384;DHT22;5238;43.508;4.980;2023-09-19T14:07:42;30.50;91.30
10384;DHT22;5238;43.508;4.980;2023-09-19T14:10:10;30.50;91.30
10384;DHT22;5238;43.508;4.980;2023-09-19T14:12:39;30.50;91.30
10384;DHT22;5238;43.508;4.980;2023-09-19T14:15:07;30.50;91.30
10384;DHT22;5238;43.508;4.980;2023-09-19T14:17:34;30.50;91.30
10384;DHT22;5238;43.508;4.980;2023-09-19T14:20:02;30.40;91.30
10384;DHT22;5238;43.508;4.980;2023-09-19T14:22:29;30.40;91.30
10384;DHT22;5238;43.508;4.980;2023-09-19T14:24:57;30.40;91.30
10384;DHT22;5238;43.508;4.980;2023-09-19T14:27:25;30.30;91.30
10384;DHT22;5238;43.508;4.980;2023-09-19T14:29:53;30.30;91.30
10384;DHT22;5238;43.508;4.980;2023-09-19T14:32:21;30.30;91.30
10384;DHT22;5238;43.508;4.980;2023-09-19T14:34:48;30.40;91.30
10384;DHT22;5238;43.508;4.980;2023-09-19T14:37:15;30.40;91.30
10384;DHT22;5238;43.508;4.980;2023-09-19T14:39:42;30.40;91.30
10384;DHT22;5238;43.508;4.980;2023-09-19T14:42:10;30.40;91.30
10384;DHT22;5238;43.508;4.980;2023-09-19T14:44:38;30.40;91.30
10384;DHT22;5238;43.508;4.980;2023-09-19T14:47:06;30.40;91.30
10384;DHT22;5238;43.508;4.980;2023-09-19T14:49:33;30.50;91.30
10384;DHT22;5238;43.508;4.980;2023-09-19T14:52:00;30.40;91.30
10384;DHT22;5238;43.508;4.980;2023-09-19T14:54:29;30.40;91.30
10384;DHT22;5238;43.508;4.980;2023-09-19T14:56:56;30.40;91.30
10384;DHT22;5238;43.508;4.980;2023-09-19T14:59:30;30.30;91.30
10384;DHT22;5238;43.508;4.980;2023-09-19T15:01:57;30.30;91.30
10384;DHT22;5238;43.508;4.980;2023-09-19T15:04:27;30.30;91.30
10384;DHT22;5238;43.508;4.980;2023-09-19T15:06:54;30.20;91.30
10384;DHT22;5238;43.508;4.980;2023-09-19T15:09:21;30.20;91.30
10384;DHT22;5238;43.508;4.980;2023-09-19T15:11:49;30.20;91.30
10384;DHT22;5238;43.508;4.980;2023-09-19T15:14:18;30.10;91.30
10384;DHT22;5238;43.508;4.980;2023-09-19T15:16:45;30.10;91.30
10384;DHT22;5238;43.508;4.980;2023-09-19T15:19:12;30.10;91.30
10384;DHT22;5238;43.508;4.980;2023-09-19T15:21:41;30.00;91.30
10384;DHT22;5238;43.508;4.980;2023-09-19T15:24:08;30.00;91.30
10384;DHT22;5238;43.508;4.980;2023-09-19T15:26:35;29.90;91.30
10384;DHT22;5238;43.508;4.980;2023-09-19T15:29:05;29.90;91.30
10384;DHT22;5238;43.508;4.980;2023-09-19T15:31:32;29.80;91.30
10384;DHT22;5238;43.508;4.980;2023-09-19T15:34:01;29.80;91.30
10384;DHT22;5238;43.508;4.980;2023-09-19T15:36:29;29.70;91.30
10384;DHT22;5238;43.508;4.980;2023-09-19T15:38:59;29.70;91.30
10384;DHT22;5238;43.508;4.980;2023-09-19T15:41:27;29.70;91.30
10384;DHT22;5238;43.508;4.980;2023-09-19T15:43:54;29.70;91.30
10384;DHT22;5238;43.508;4.980;2023-09-19T15:46:21;29.70;91.30
10384;DHT22;5238;43.508;4.980;2023-09-19T15:48:48;29.60;91.30
10384;DHT22;5238;43.508;4.980;2023-09-19T15:51:15;29.60;91.30
10384;DHT22;5238;43.508;4.980;2023-09-19T15:53:45;29.60;91.30
10384;DHT22;5238;43.508;4.980;2023-09-19T15:56:14;29.60;91.30
10384;DHT22;5238;43.508;4.980;2023-09-19T15:58:44;29.60;91.30
10384;DHT22;5238;43.508;4.980;2023-09-19T16:01:11;29.50;91.30
10384;DHT22;5238;43.508;4.980;2023-09-19T16:03:39;29.50;91.30
10384;DHT22;5238;43.508;4.980;2023-09-19T16:06:09;29.50;91.30
10384;DHT22;5238;43.508;4.980;2023-09-19T16:08:39;29.40;91.30
10384;DHT22;5238;43.508;4.980;2023-09-19T16:11:06;29.40;91.30
10384;DHT22;5238;43.508;4.980;2023-09-19T16:13:35;29.30;91.30